createdAt,value
2024-04-22T00:01:51.784Z,4.16
2024-04-22T00:03:54.273Z,4.15
2024-04-22T00:05:56.657Z,4.14
2024-04-22T00:07:59.179Z,4.13
2024-04-22T00:10:01.589Z,4.12
2024-04-22T00:12:04.550Z,4.11
2024-04-22T00:14:09.710Z,4.09
2024-04-22T00:16:12.149Z,4.08
2024-04-22T00:18:14.748Z,4.06
2024-04-22T00:20:17.288Z,4.04
2024-04-22T00:22:19.807Z,4.03
2024-04-22T00:24:22.242Z,4.01
2024-04-22T00:26:24.688Z,4.01
2024-04-22T00:28:27.291Z,3.99
2024-04-22T00:30:29.741Z,3.97
2024-04-22T00:32:32.121Z,3.96
2024-04-22T00:34:34.681Z,3.95
2024-04-22T00:36:37.184Z,3.94
2024-04-22T00:38:39.900Z,3.92
2024-04-22T00:40:42.513Z,3.89
2024-04-22T00:42:47.926Z,3.88
2024-04-22T00:44:50.357Z,3.87
2024-04-22T00:46:52.918Z,3.86
2024-04-22T00:48:55.735Z,3.86
2024-04-22T00:50:58.972Z,3.84
2024-04-22T00:53:03.792Z,3.83
2024-04-22T00:55:08.549Z,3.79
2024-04-22T00:57:12.150Z,3.76
2024-04-22T00:59:14.794Z,3.75
2024-04-22T01:01:18.305Z,3.74
2024-04-22T01:03:21.070Z,3.74
2024-04-22T01:05:24.056Z,3.74
2024-04-22T01:07:28.259Z,3.73
2024-04-22T01:09:30.952Z,3.71
2024-04-22T01:11:33.748Z,3.70
2024-04-22T01:13:36.232Z,3.70
2024-04-22T01:15:38.777Z,3.70
2024-04-22T01:17:44.877Z,3.69
2024-04-22T01:19:48.810Z,3.69
2024-04-22T01:21:51.955Z,3.70
2024-04-22T01:23:56.475Z,3.71
2024-04-22T01:26:00.781Z,3.72
2024-04-22T01:28:05.754Z,3.74
2024-04-22T01:30:08.876Z,3.75
2024-04-22T01:32:11.268Z,3.75
2024-04-22T01:34:13.908Z,3.74
2024-04-22T01:36:16.359Z,3.71
2024-04-22T01:38:18.739Z,3.71
2024-04-22T01:40:21.367Z,3.70
2024-04-22T01:42:24.373Z,3.70
2024-04-22T01:44:27.208Z,3.69
2024-04-22T01:46:29.758Z,3.64
2024-04-22T01:48:32.500Z,3.60
2024-04-22T01:50:34.942Z,3.54
2024-04-22T01:52:37.543Z,3.47
2024-04-22T01:54:41.163Z,3.44
2024-04-22T01:56:43.996Z,3.43
2024-04-22T01:58:46.539Z,3.43
2024-04-22T02:00:48.983Z,3.42
2024-04-22T02:02:51.441Z,3.39
2024-04-22T02:04:53.993Z,3.34
2024-04-22T02:06:56.420Z,3.30
2024-04-22T02:08:58.870Z,3.27
2024-04-22T02:11:01.468Z,3.26
2024-04-22T02:13:04.476Z,3.25
2024-04-22T02:15:06.962Z,3.22
2024-04-22T02:17:11.807Z,3.21
2024-04-22T02:19:14.263Z,3.18
2024-04-22T02:21:16.834Z,3.13
2024-04-22T02:23:19.232Z,3.07
2024-04-22T02:25:21.651Z,3.01
2024-04-22T02:27:24.047Z,2.96
2024-04-22T02:29:26.413Z,2.91
2024-04-22T02:31:28.887Z,2.89
2024-04-22T02:33:31.486Z,2.87
2024-04-22T02:35:35.058Z,2.86
2024-04-22T02:37:37.570Z,2.84
2024-04-22T02:39:40.177Z,2.82
2024-04-22T02:41:42.911Z,2.81
2024-04-22T02:43:47.633Z,2.81
2024-04-22T02:45:50.049Z,2.81
2024-04-22T02:47:52.559Z,2.84
2024-04-22T02:49:55.051Z,2.90
2024-04-22T02:51:57.449Z,2.95
2024-04-22T02:53:59.853Z,2.97
2024-04-22T02:56:02.245Z,2.97
2024-04-22T02:58:04.931Z,2.95
2024-04-22T03:00:07.960Z,2.94
2024-04-22T03:02:11.555Z,2.92
2024-04-22T03:04:14.299Z,2.89
2024-04-22T03:06:16.992Z,2.84
2024-04-22T03:08:19.398Z,2.80
2024-04-22T03:10:21.889Z,2.76
2024-04-22T03:12:24.345Z,2.74
2024-04-22T03:14:26.845Z,2.72
2024-04-22T03:16:29.300Z,2.71
2024-04-22T03:18:31.984Z,2.71
2024-04-22T03:20:37.740Z,2.72
2024-04-22T03:22:41.161Z,2.72
2024-04-22T03:24:44.197Z,2.71
2024-04-22T03:26:46.556Z,2.70
2024-04-22T03:28:48.934Z,2.71
2024-04-22T03:30:51.330Z,2.71
2024-04-22T03:32:54.113Z,2.71
2024-04-22T03:34:56.500Z,2.71
2024-04-22T03:36:59.045Z,2.71
2024-04-22T03:39:01.572Z,2.69
2024-04-22T03:41:04.576Z,2.65
2024-04-22T03:43:07.167Z,2.63
2024-04-22T03:45:10.666Z,2.61
2024-04-22T03:47:31.507Z,2.60
2024-04-22T03:49:52.769Z,2.57
2024-04-22T03:51:55.255Z,2.54
2024-04-22T03:53:58.838Z,2.54
2024-04-22T03:56:01.225Z,2.55
2024-04-22T03:58:03.933Z,2.57
2024-04-22T04:00:07.124Z,2.60
2024-04-22T04:02:14.384Z,2.63
2024-04-22T04:04:17.066Z,2.66
2024-04-22T04:06:19.617Z,2.71
2024-04-22T04:08:22.025Z,2.75
2024-04-22T04:10:24.681Z,2.77
2024-04-22T04:12:27.146Z,2.77
2024-04-22T04:14:29.539Z,2.75
2024-04-22T04:16:32.205Z,2.76
2024-04-22T04:18:34.831Z,2.73
2024-04-22T04:20:38.079Z,2.69
2024-04-22T04:22:40.880Z,2.65
2024-04-22T04:24:43.419Z,2.61
2024-04-22T04:26:45.794Z,2.57
2024-04-22T04:28:51.486Z,2.53
2024-04-22T04:31:01.561Z,2.52
2024-04-22T04:33:04.385Z,2.53
2024-04-22T04:35:08.531Z,2.51
2024-04-22T04:37:11.584Z,2.49
2024-04-22T04:39:14.348Z,2.47
2024-04-22T04:41:17.699Z,2.43
2024-04-22T04:43:20.166Z,2.41
2024-04-22T04:45:22.543Z,2.41
2024-04-22T04:47:25.155Z,2.40
2024-04-22T04:49:27.748Z,2.36
2024-04-22T04:51:30.273Z,2.35
2024-04-22T04:53:32.756Z,2.37
2024-04-22T04:55:35.387Z,2.42
2024-04-22T04:57:37.849Z,2.48
2024-04-22T04:59:40.242Z,2.54
2024-04-22T05:01:43.657Z,2.59
2024-04-22T05:03:46.844Z,2.64
2024-04-22T05:05:59.974Z,2.68
2024-04-22T05:08:04.510Z,2.72
2024-04-22T05:10:07.686Z,2.74
2024-04-22T05:12:10.234Z,2.77
2024-04-22T05:14:12.801Z,2.76
2024-04-22T05:16:15.273Z,2.76
2024-04-22T05:18:17.802Z,2.77
2024-04-22T05:20:20.533Z,2.76
2024-04-22T05:22:23.028Z,2.77
2024-04-22T05:24:29.758Z,2.79
2024-04-22T05:26:32.361Z,2.81
2024-04-22T05:28:34.901Z,2.84
2024-04-22T05:30:37.425Z,2.87
2024-04-22T05:32:40.142Z,2.92
2024-04-22T05:35:01.187Z,2.96
2024-04-22T05:37:03.978Z,3.03
2024-04-22T05:39:06.332Z,3.09
2024-04-22T05:41:09.910Z,3.16
2024-04-22T05:43:12.358Z,3.25
2024-04-22T05:45:14.922Z,3.31
2024-04-22T05:47:17.320Z,3.36
2024-04-22T05:49:19.889Z,3.40
2024-04-22T05:51:22.377Z,3.45
2024-04-22T05:53:24.774Z,3.48
2024-04-22T05:55:27.232Z,3.52
2024-04-22T05:57:29.782Z,3.56
2024-04-22T05:59:32.241Z,3.61
2024-04-22T06:01:34.884Z,3.64
2024-04-22T06:03:37.933Z,3.66
2024-04-22T06:05:40.397Z,3.67
2024-04-22T06:07:42.977Z,3.70
2024-04-22T06:09:45.488Z,3.71
2024-04-22T06:11:57.614Z,3.74
2024-04-22T06:14:10.399Z,3.78
2024-04-22T06:16:12.964Z,3.81
2024-04-22T06:18:15.759Z,3.83
2024-04-22T06:20:18.390Z,3.87
2024-04-22T06:22:20.822Z,3.91
2024-04-22T06:24:23.221Z,3.95
2024-04-22T06:26:25.694Z,3.97
2024-04-22T06:28:28.178Z,4.02
2024-04-22T06:30:30.598Z,4.08
2024-04-22T06:32:36.147Z,4.14
2024-04-22T06:34:38.734Z,4.21
2024-04-22T06:36:42.280Z,4.27
2024-04-22T06:38:44.898Z,4.34
2024-04-22T06:40:47.692Z,4.41
2024-04-22T06:42:50.290Z,4.47
2024-04-22T06:44:52.657Z,4.55
2024-04-22T06:46:56.139Z,4.62
2024-04-22T06:48:58.645Z,4.69
2024-04-22T06:51:01.683Z,4.75
2024-04-22T06:53:04.257Z,4.80
2024-04-22T06:55:06.767Z,4.86
2024-04-22T06:57:09.197Z,4.92
2024-04-22T06:59:11.807Z,4.96
2024-04-22T07:01:23.958Z,5.02
2024-04-22T07:03:35.321Z,5.07
2024-04-22T07:05:38.032Z,5.10
2024-04-22T07:07:40.575Z,5.13
2024-04-22T07:09:43.166Z,5.17
2024-04-22T07:11:45.658Z,5.22
2024-04-22T07:13:48.066Z,5.26
2024-04-22T07:15:50.854Z,5.30
2024-04-22T07:17:53.570Z,5.35
2024-04-22T07:19:56.247Z,5.41
2024-04-22T07:22:02.536Z,5.47
2024-04-22T07:24:06.231Z,5.52
2024-04-22T07:26:09.394Z,5.56
2024-04-22T07:28:12.675Z,5.60
2024-04-22T07:30:17.764Z,5.63
2024-04-22T07:32:20.549Z,5.69
2024-04-22T07:34:23.358Z,5.73
2024-04-22T07:36:40.536Z,5.80
2024-04-22T07:38:44.308Z,5.88
2024-04-22T07:40:47.796Z,5.93
2024-04-22T07:42:50.285Z,5.96
2024-04-22T07:44:52.756Z,5.98
2024-04-22T07:46:55.241Z,5.98
2024-04-22T07:48:57.805Z,5.98
2024-04-22T07:51:04.019Z,5.97
2024-04-22T07:53:07.436Z,5.96
2024-04-22T07:55:11.898Z,5.95
2024-04-22T07:57:14.671Z,5.93
2024-04-22T07:59:17.327Z,5.92
2024-04-22T08:01:19.988Z,5.93
2024-04-22T08:03:22.746Z,5.93
2024-04-22T08:05:25.459Z,5.92
2024-04-22T08:07:28.162Z,5.93
2024-04-22T08:09:31.307Z,5.94
2024-04-22T08:11:34.150Z,5.95
2024-04-22T08:13:36.589Z,6.00
2024-04-22T08:15:39.732Z,6.08
2024-04-22T08:17:42.252Z,6.17
2024-04-22T08:19:44.823Z,6.24
2024-04-22T08:21:48.449Z,6.31
2024-04-22T08:23:50.866Z,6.34
2024-04-22T08:25:54.019Z,6.35
2024-04-22T08:27:56.513Z,6.38
2024-04-22T08:30:02.198Z,6.42
2024-04-22T08:32:05.290Z,6.45
2024-04-22T08:34:08.376Z,6.48
2024-04-22T08:36:11.932Z,6.50
2024-04-22T08:38:16.494Z,6.54
2024-04-22T08:40:24.746Z,6.61
2024-04-22T08:42:29.143Z,6.68
2024-04-22T08:44:31.580Z,6.70
2024-04-22T08:46:34.704Z,6.72
2024-04-22T08:48:38.544Z,6.74
2024-04-22T08:50:42.254Z,6.75
2024-04-22T08:52:51.651Z,6.76
2024-04-22T08:54:58.743Z,6.77
2024-04-22T08:57:01.643Z,6.79
2024-04-22T08:59:04.303Z,6.81
2024-04-22T09:01:08.038Z,6.84
2024-04-22T09:03:10.881Z,6.86
2024-04-22T09:05:14.923Z,6.90
2024-04-22T09:07:18.810Z,6.96
2024-04-22T09:09:35.906Z,6.96
2024-04-22T09:12:08.232Z,6.95
2024-04-22T09:14:16.962Z,6.97
2024-04-22T09:16:19.810Z,6.99
2024-04-22T09:18:24.055Z,7.00
2024-04-22T09:20:34.670Z,7.01
2024-04-22T09:22:37.167Z,7.02
2024-04-22T09:24:39.641Z,7.04
2024-04-22T09:26:42.820Z,7.06
2024-04-22T09:28:46.709Z,7.13
2024-04-22T09:30:54.676Z,7.21
2024-04-22T09:33:00.614Z,7.29
2024-04-22T09:35:16.666Z,7.35
2024-04-22T09:37:23.615Z,7.39
2024-04-22T09:39:28.052Z,7.46
2024-04-22T09:41:31.631Z,7.51
2024-04-22T09:43:38.485Z,7.59
2024-04-22T09:45:42.173Z,7.67
2024-04-22T09:47:47.336Z,7.77
2024-04-22T09:49:52.332Z,7.86
2024-04-22T09:51:58.071Z,7.94
2024-04-22T09:54:00.832Z,8.00
2024-04-22T09:56:08.479Z,8.07
2024-04-22T09:58:12.351Z,8.14
2024-04-22T10:00:17.098Z,8.18
2024-04-22T10:02:19.768Z,8.26
2024-04-22T10:04:22.858Z,8.34
2024-04-22T10:06:27.168Z,8.39
2024-04-22T10:08:30.105Z,8.41
2024-04-22T10:10:32.663Z,8.44
2024-04-22T10:12:35.411Z,8.46
2024-04-22T10:14:37.917Z,8.45
2024-04-22T10:16:41.389Z,8.43
2024-04-22T10:18:48.484Z,8.37
2024-04-22T10:20:52.463Z,8.32
2024-04-22T10:22:55.367Z,8.29
2024-04-22T10:24:59.491Z,8.26
2024-04-22T10:27:11.572Z,8.22
2024-04-22T10:29:15.587Z,8.19
2024-04-22T10:31:20.948Z,8.16
2024-04-22T10:33:23.444Z,8.13
2024-04-22T10:35:26.260Z,8.11
2024-04-22T10:37:29.100Z,8.08
2024-04-22T10:39:32.227Z,8.06
2024-04-22T10:41:35.766Z,8.04
2024-04-22T10:43:39.628Z,8.01
2024-04-22T10:45:42.248Z,7.98
2024-04-22T10:47:46.712Z,7.96
2024-04-22T10:49:52.375Z,7.93
2024-04-22T10:51:54.936Z,7.93
2024-04-22T10:53:57.471Z,7.92
2024-04-22T10:56:00.076Z,7.92
2024-04-22T10:58:03.122Z,7.91
2024-04-22T11:00:07.142Z,7.91
2024-04-22T11:02:13.143Z,7.92
2024-04-22T11:04:17.033Z,7.93
2024-04-22T11:06:21.048Z,7.96
2024-04-22T11:08:23.642Z,7.98
2024-04-22T11:10:34.505Z,7.99
2024-04-22T11:12:43.879Z,8.02
2024-04-22T11:14:46.465Z,8.06
2024-04-22T11:16:58.113Z,8.08
2024-04-22T11:19:07.054Z,8.12
2024-04-22T11:21:10.024Z,8.15
2024-04-22T11:23:12.562Z,8.17
2024-04-22T11:25:15.137Z,8.20
2024-04-22T11:27:17.944Z,8.24
2024-04-22T11:29:20.850Z,8.29
2024-04-22T11:31:23.528Z,8.38
2024-04-22T11:33:29.492Z,8.49
2024-04-22T11:35:38.492Z,8.62
2024-04-22T11:37:41.513Z,8.75
2024-04-22T11:39:44.740Z,8.82
2024-04-22T11:41:47.950Z,8.84
2024-04-22T11:43:50.576Z,8.82
2024-04-22T11:45:53.316Z,8.84
2024-04-22T11:47:55.928Z,8.89
2024-04-22T11:49:58.455Z,8.88
2024-04-22T11:52:00.935Z,8.87
2024-04-22T11:54:05.851Z,8.84
2024-04-22T11:56:09.277Z,8.80
2024-04-22T11:58:11.917Z,8.76
2024-04-22T12:00:14.484Z,8.75
2024-04-22T12:02:18.261Z,8.73
2024-04-22T12:04:21.059Z,8.72
2024-04-22T12:06:24.299Z,8.70
2024-04-22T12:08:26.762Z,8.70
2024-04-22T12:10:29.559Z,8.70
2024-04-22T12:12:32.693Z,8.70
2024-04-22T12:14:36.045Z,8.71
2024-04-22T12:16:38.578Z,8.73
2024-04-22T12:18:41.172Z,8.78
2024-04-22T12:20:43.717Z,8.89
2024-04-22T12:22:46.157Z,9.01
2024-04-22T12:24:48.938Z,9.13
2024-04-22T12:26:51.519Z,9.24
2024-04-22T12:28:53.926Z,9.33
2024-04-22T12:30:56.521Z,9.40
2024-04-22T12:32:59.052Z,9.46
2024-04-22T12:35:03.622Z,9.50
2024-04-22T12:37:06.316Z,9.51
2024-04-22T12:39:09.001Z,9.49
2024-04-22T12:41:11.711Z,9.45
2024-04-22T12:43:14.216Z,9.44
2024-04-22T12:45:17.232Z,9.43
2024-04-22T12:47:38.423Z,9.42
2024-04-22T12:49:59.629Z,9.44
2024-04-22T12:52:02.222Z,9.46
2024-04-22T12:54:05.077Z,9.48
2024-04-22T12:56:07.632Z,9.54
2024-04-22T12:58:10.999Z,9.59
2024-04-22T13:00:14.240Z,9.64
2024-04-22T13:02:16.765Z,9.69
2024-04-22T13:04:21.009Z,9.76
2024-04-22T13:06:23.643Z,9.84
2024-04-22T13:08:26.053Z,9.93
2024-04-22T13:10:28.599Z,10.03
2024-04-22T13:12:31.267Z,10.12
2024-04-22T13:14:33.707Z,10.17
2024-04-22T13:16:36.206Z,10.25
2024-04-22T13:18:38.704Z,10.30
2024-04-22T13:20:41.587Z,10.36
2024-04-22T13:22:44.124Z,10.46
2024-04-22T13:24:46.801Z,10.52
2024-04-22T13:26:49.300Z,10.58
2024-04-22T13:28:51.964Z,10.63
2024-04-22T13:30:56.402Z,10.63
2024-04-22T13:33:00.325Z,10.62
2024-04-22T13:35:03.380Z,10.66
2024-04-22T13:37:05.903Z,10.67
2024-04-22T13:39:08.423Z,10.72
2024-04-22T13:41:11.268Z,10.80
2024-04-22T13:43:13.863Z,10.90
2024-04-22T13:45:16.558Z,11.01
2024-04-22T13:47:19.055Z,11.12
2024-04-22T13:49:21.470Z,11.20
2024-04-22T13:51:23.920Z,11.24
2024-04-22T13:53:31.689Z,11.20
2024-04-22T13:55:35.280Z,11.14
2024-04-22T13:57:39.532Z,11.06
2024-04-22T13:59:42.335Z,11.00
2024-04-22T14:01:44.856Z,10.93
2024-04-22T14:03:48.742Z,10.87
2024-04-22T14:05:51.231Z,10.82
2024-04-22T14:07:54.711Z,10.75
2024-04-22T14:09:57.263Z,10.63
2024-04-22T14:11:59.867Z,10.53
2024-04-22T14:14:02.500Z,10.45
2024-04-22T14:16:06.114Z,10.40
2024-04-22T14:18:09.227Z,10.33
2024-04-22T14:20:11.782Z,10.28
2024-04-22T14:22:14.277Z,10.26
2024-04-22T14:24:17.499Z,10.27
2024-04-22T14:26:20.570Z,10.32
2024-04-22T14:28:25.238Z,10.37
2024-04-22T14:30:27.779Z,10.45
2024-04-22T14:32:30.463Z,10.47
2024-04-22T14:34:33.011Z,10.46
2024-04-22T14:36:35.556Z,10.49
2024-04-22T14:38:38.014Z,10.59
2024-04-22T14:40:40.475Z,10.70
2024-04-22T14:42:42.946Z,10.83
2024-04-22T14:44:45.844Z,10.97
2024-04-22T14:46:49.433Z,11.09
2024-04-22T14:48:53.046Z,11.19
2024-04-22T14:50:55.684Z,11.32
2024-04-22T14:52:59.017Z,11.42
2024-04-22T14:55:01.559Z,11.49
2024-04-22T14:57:04.421Z,11.56
2024-04-22T14:59:07.501Z,11.64
2024-04-22T15:01:10.224Z,11.79
2024-04-22T15:03:14.865Z,11.92
2024-04-22T15:05:18.063Z,12.04
2024-04-22T15:07:21.383Z,12.21
2024-04-22T15:09:25.718Z,12.38
2024-04-22T15:11:30.272Z,12.54
2024-04-22T15:13:33.127Z,12.70
2024-04-22T15:15:35.594Z,12.88
2024-04-22T15:17:38.108Z,13.10
2024-04-22T15:19:44.085Z,13.29
2024-04-22T15:21:46.932Z,13.41
2024-04-22T15:23:52.109Z,13.43
2024-04-22T15:25:54.812Z,13.40
2024-04-22T15:27:57.324Z,13.29
2024-04-22T15:29:59.798Z,13.18
2024-04-22T15:32:03.125Z,13.08
2024-04-22T15:34:05.910Z,12.96
2024-04-22T15:36:08.659Z,12.84
2024-04-22T15:38:11.293Z,12.72
2024-04-22T15:40:13.886Z,12.61
2024-04-22T15:42:16.757Z,12.50
2024-04-22T15:44:19.131Z,12.39
2024-04-22T15:46:21.850Z,12.27
2024-04-22T15:48:24.436Z,12.16
2024-04-22T15:50:27.088Z,12.08
2024-04-22T15:52:29.526Z,12.01
2024-04-22T15:54:32.100Z,11.95
2024-04-22T15:56:35.917Z,11.86
2024-04-22T15:58:41.467Z,11.77
2024-04-22T16:00:43.998Z,11.69
2024-04-22T16:02:46.753Z,11.62
2024-04-22T16:04:50.980Z,11.56
2024-04-22T16:06:53.487Z,11.50
2024-04-22T16:08:56.158Z,11.45
2024-04-22T16:10:58.848Z,11.40
2024-04-22T16:13:01.569Z,11.36
2024-04-22T16:15:05.465Z,11.32
2024-04-22T16:17:07.873Z,11.29
2024-04-22T16:19:11.872Z,11.27
2024-04-22T16:21:17.376Z,11.28
2024-04-22T16:23:20.397Z,11.30
2024-04-22T16:25:25.891Z,11.33
2024-04-22T16:27:28.590Z,11.39
2024-04-22T16:29:31.004Z,11.47
2024-04-22T16:31:33.537Z,11.53
2024-04-22T16:33:38.826Z,11.65
2024-04-22T16:35:41.805Z,11.91
2024-04-22T16:37:44.281Z,12.24
2024-04-22T16:39:46.805Z,12.62
2024-04-22T16:41:49.361Z,13.04
2024-04-22T16:43:51.853Z,13.52
2024-04-22T16:45:54.278Z,14.02
2024-04-22T16:47:57.716Z,14.55
2024-04-22T16:50:03.029Z,15.09
2024-04-22T16:52:06.587Z,15.63
2024-04-22T16:54:08.996Z,16.14
2024-04-22T16:56:11.525Z,16.38
2024-04-22T16:58:14.020Z,16.02
2024-04-22T17:00:16.982Z,15.51
2024-04-22T17:02:19.800Z,14.99
2024-04-22T17:04:22.589Z,14.47
2024-04-22T17:06:25.066Z,14.02
2024-04-22T17:08:27.925Z,13.66
2024-04-22T17:10:30.527Z,13.35
2024-04-22T17:12:33.609Z,13.07
2024-04-22T17:14:35.967Z,12.81
2024-04-22T17:16:38.592Z,12.62
2024-04-22T17:18:41.078Z,12.60
2024-04-22T17:20:52.814Z,12.64
2024-04-22T17:22:55.440Z,12.73
2024-04-22T17:24:57.986Z,12.75
2024-04-22T17:27:00.763Z,12.69
2024-04-22T17:29:03.353Z,12.51
2024-04-22T17:31:07.151Z,12.30
2024-04-22T17:33:10.132Z,12.09
2024-04-22T17:35:12.611Z,11.89
2024-04-22T17:37:18.898Z,11.71
2024-04-22T17:39:21.505Z,11.55
2024-04-22T17:41:24.045Z,11.42
2024-04-22T17:43:26.568Z,11.29
2024-04-22T17:45:29.223Z,11.14
2024-04-22T17:47:31.838Z,11.00
2024-04-22T17:49:34.942Z,10.88
2024-04-22T17:51:37.628Z,10.77
2024-04-22T17:53:40.407Z,10.65
2024-04-22T17:55:44.453Z,10.54
2024-04-22T17:57:47.447Z,10.45
2024-04-22T17:59:50.198Z,10.36
2024-04-22T18:01:53.851Z,10.27
2024-04-22T18:03:59.248Z,10.17
2024-04-22T18:06:03.517Z,10.07
2024-04-22T18:08:11.457Z,9.96
2024-04-22T18:10:18.181Z,9.87
2024-04-22T18:12:20.788Z,9.77
2024-04-22T18:14:25.944Z,9.68
2024-04-22T18:16:29.633Z,9.59
2024-04-22T18:18:33.470Z,9.52
2024-04-22T18:20:37.116Z,9.43
2024-04-22T18:22:44.460Z,9.35
2024-04-22T18:24:56.003Z,9.26
2024-04-22T18:27:01.658Z,9.18
2024-04-22T18:29:04.543Z,9.11
2024-04-22T18:31:06.940Z,9.03
2024-04-22T18:33:09.465Z,8.95
2024-04-22T18:35:12.002Z,8.88
2024-04-22T18:37:15.393Z,8.80
2024-04-22T18:39:19.132Z,8.72
2024-04-22T18:41:22.038Z,8.66
2024-04-22T18:43:25.586Z,8.59
2024-04-22T18:45:28.761Z,8.53
2024-04-22T18:47:31.269Z,8.46
2024-04-22T18:49:34.066Z,8.39
2024-04-22T18:51:36.604Z,8.33
2024-04-22T18:53:40.410Z,8.26
2024-04-22T18:55:43.929Z,8.21
2024-04-22T18:57:48.341Z,8.16
2024-04-22T18:59:52.028Z,8.10
2024-04-22T19:01:55.961Z,8.05
2024-04-22T19:03:58.508Z,8.00
2024-04-22T19:06:03.103Z,7.95
2024-04-22T19:08:07.497Z,7.90
2024-04-22T19:10:11.976Z,7.86
2024-04-22T19:12:16.187Z,7.81
2024-04-22T19:14:23.236Z,7.75
2024-04-22T19:16:27.575Z,7.70
2024-04-22T19:18:31.267Z,7.67
2024-04-22T19:20:35.247Z,7.64
2024-04-22T19:22:39.153Z,7.59
2024-04-22T19:24:44.127Z,7.54
2024-04-22T19:26:47.701Z,7.50
2024-04-22T19:28:51.088Z,7.45
2024-04-22T19:30:56.175Z,7.41
2024-04-22T19:32:58.707Z,7.38
2024-04-22T19:35:01.241Z,7.34
2024-04-22T19:37:04.273Z,7.30
2024-04-22T19:39:07.852Z,7.25
2024-04-22T19:41:10.352Z,7.21
2024-04-22T19:43:12.873Z,7.17
2024-04-22T19:45:16.496Z,7.12
2024-04-22T19:47:19.237Z,7.09
2024-04-22T19:49:22.590Z,7.06
2024-04-22T19:51:25.035Z,7.02
2024-04-22T19:53:27.449Z,6.98
2024-04-22T19:55:29.945Z,6.95
2024-04-22T19:57:33.715Z,6.91
2024-04-22T19:59:38.275Z,6.88
2024-04-22T20:01:40.931Z,6.84
2024-04-22T20:03:43.503Z,6.80
2024-04-22T20:05:46.134Z,6.76
2024-04-22T20:07:48.707Z,6.74
2024-04-22T20:09:51.113Z,6.70
2024-04-22T20:11:53.524Z,6.67
2024-04-22T20:13:55.965Z,6.63
2024-04-22T20:16:15.476Z,6.59
2024-04-22T20:18:28.949Z,6.53
2024-04-22T20:20:31.701Z,6.48
2024-04-22T20:22:34.158Z,6.44
2024-04-22T20:24:36.768Z,6.39
2024-04-22T20:26:39.257Z,6.35
2024-04-22T20:28:41.940Z,6.31
2024-04-22T20:30:44.431Z,6.27
2024-04-22T20:32:49.216Z,6.24
2024-04-22T20:34:51.865Z,6.21
2024-04-22T20:36:54.317Z,6.18
2024-04-22T20:38:57.478Z,6.15
2024-04-22T20:41:01.737Z,6.13
2024-04-22T20:43:04.534Z,6.09
2024-04-22T20:45:09.205Z,6.06
2024-04-22T20:47:12.828Z,6.02
2024-04-22T20:49:19.746Z,5.99
2024-04-22T20:51:22.179Z,5.95
2024-04-22T20:53:25.662Z,5.92
2024-04-22T20:55:28.380Z,5.89
2024-04-22T20:57:30.900Z,5.85
2024-04-22T20:59:33.309Z,5.82
2024-04-22T21:01:39.071Z,5.79
2024-04-22T21:03:41.568Z,5.75
2024-04-22T21:05:45.415Z,5.73
2024-04-22T21:07:47.880Z,5.70
2024-04-22T21:09:51.067Z,5.67
2024-04-22T21:11:53.544Z,5.65
2024-04-22T21:14:00.750Z,5.62
2024-04-22T21:16:04.918Z,5.59
2024-04-22T21:18:08.138Z,5.57
2024-04-22T21:20:10.769Z,5.54
2024-04-22T21:22:13.184Z,5.51
2024-04-22T21:24:15.630Z,5.48
2024-04-22T21:26:17.993Z,5.46
2024-04-22T21:28:20.451Z,5.44
2024-04-22T21:30:24.931Z,5.40
2024-04-22T21:32:27.679Z,5.36
2024-04-22T21:34:30.155Z,5.34
2024-04-22T21:36:32.685Z,5.32
2024-04-22T21:38:35.111Z,5.29
2024-04-22T21:40:37.623Z,5.27
2024-04-22T21:42:40.276Z,5.25
2024-04-22T21:44:42.663Z,5.23
2024-04-22T21:46:45.161Z,5.21
2024-04-22T21:48:47.676Z,5.18
2024-04-22T21:50:51.706Z,5.14
2024-04-22T21:52:54.172Z,5.10
2024-04-22T21:54:57.057Z,5.07
2024-04-22T21:57:37.048Z,5.04
2024-04-22T22:00:17.144Z,5.01
2024-04-22T22:03:01.440Z,4.96
2024-04-22T22:05:42.175Z,4.92
2024-04-22T22:07:44.691Z,4.89
2024-04-22T22:09:49.033Z,4.86
2024-04-22T22:11:51.996Z,4.84
2024-04-22T22:13:54.899Z,4.82
2024-04-22T22:15:57.350Z,4.80
2024-04-22T22:18:02.092Z,4.78
2024-04-22T22:20:07.136Z,4.76
2024-04-22T22:22:10.063Z,4.74
2024-04-22T22:24:12.916Z,4.73
2024-04-22T22:26:15.404Z,4.71
2024-04-22T22:28:17.848Z,4.68
2024-04-22T22:30:20.318Z,4.67
2024-04-22T22:32:23.033Z,4.65
2024-04-22T22:34:25.871Z,4.64
2024-04-22T22:36:30.115Z,4.63
2024-04-22T22:38:32.590Z,4.62
2024-04-22T22:40:35.164Z,4.61
2024-04-22T22:42:37.773Z,4.61
2024-04-22T22:44:40.164Z,4.60
2024-04-22T22:46:42.700Z,4.59
2024-04-22T22:48:45.508Z,4.58
2024-04-22T22:50:48.229Z,4.59
2024-04-22T22:52:50.643Z,4.59
2024-04-22T22:54:53.067Z,4.59
2024-04-22T22:56:57.555Z,4.58
2024-04-22T22:59:00.109Z,4.55
2024-04-22T23:01:03.107Z,4.50
2024-04-22T23:03:05.797Z,4.47
2024-04-22T23:05:08.270Z,4.45
2024-04-22T23:07:10.661Z,4.42
2024-04-22T23:09:13.840Z,4.37
2024-04-22T23:11:16.348Z,4.35
2024-04-22T23:13:18.887Z,4.32
2024-04-22T23:15:21.429Z,4.29
2024-04-22T23:17:23.910Z,4.25
2024-04-22T23:19:26.431Z,4.22
2024-04-22T23:21:29.399Z,4.18
2024-04-22T23:23:32.370Z,4.14
2024-04-22T23:25:34.858Z,4.11
2024-04-22T23:27:39.519Z,4.07
2024-04-22T23:29:42.129Z,4.04
2024-04-22T23:31:44.736Z,4.02
2024-04-22T23:33:47.384Z,3.99
2024-04-22T23:35:50.010Z,3.97
2024-04-22T23:37:52.698Z,3.94
2024-04-22T23:39:55.358Z,3.92
2024-04-22T23:41:57.889Z,3.90
2024-04-22T23:44:00.664Z,3.88
2024-04-22T23:46:03.260Z,3.86
2024-04-22T23:48:06.664Z,3.85
2024-04-22T23:50:09.240Z,3.83
2024-04-22T23:52:11.824Z,3.80
2024-04-22T23:54:14.617Z,3.78
2024-04-22T23:56:17.066Z,3.76
2024-04-22T23:58:19.508Z,3.73
